Time;durP1;ratioP1;P1;durP2;ratioP2;P2;SDS_P1;SDS_P2;PMS_P1;PMS_P2;Temp;Humidity;BMP_temperature;BMP_pressure;BME280_temperature;BME280_humidity;BME280_pressure;Samples;Min_cycle;Max_cycle;Signal;HPM_P1;HPM_P2
2022/09/18 00:00:24;;;;;;;;;;;;;;;12.00;76.04;98659.34;4417202;32;32557;-81
2022/09/18 00:02:53;;;;;;;;;;;;;;;11.88;77.12;98660.63;4427439;32;34215;-82
2022/09/18 00:05:25;;;;;;;;;;;;;;;11.75;77.54;98665.38;4431972;32;33707;-82
2022/09/18 00:07:57;;;;;;;;;;;;;;;11.77;77.19;98653.19;4431454;32;33040;-84
2022/09/18 00:10:27;;;;;;;;;;;;;;;11.67;78.26;98655.25;4433549;32;33520;-82
2022/09/18 00:12:56;;;;;;;;;;;;;;;11.94;76.25;98648.28;4437219;32;34136;-83
2022/09/18 00:15:25;;;;;;;;;;;;;;;11.84;76.51;98652.09;4431861;32;34579;-81
2022/09/18 00:17:54;;;;;;;;;;;;;;;11.63;77.14;98645.88;4431096;32;33474;-84
2022/09/18 00:20:29;;;;;;;;;;;;;;;12.04;75.47;98645.37;4432334;32;33655;-80
2022/09/18 00:22:58;;;;;;;;;;;;;;;11.71;76.16;98645.59;4436737;32;34343;-83
2022/09/18 00:25:31;;;;;;;;;;;;;;;11.89;75.66;98651.97;4430760;32;34222;-82
2022/09/18 00:28:00;;;;;;;;;;;;;;;11.92;75.30;98646.63;4432963;32;33715;-81
2022/09/18 00:30:31;;;;;;;;;;;;;;;11.79;75.69;98646.19;4421290;32;33850;-80
2022/09/18 00:32:59;;;;;;;;;;;;;;;11.99;74.24;98645.53;4430775;32;34541;-83
2022/09/18 00:35:30;;;;;;;;;;;;;;;11.91;74.71;98650.13;4437227;32;35158;-82
2022/09/18 00:38:06;;;;;;;;;;;;;;;11.80;74.64;98647.88;4435135;32;33929;-83
2022/09/18 00:40:35;;;;;;;;;;;;;;;11.89;73.72;98658.00;4432242;32;34011;-83
2022/09/18 00:43:10;;;;;;;;;;;;;;;11.75;74.33;98649.78;4430747;32;34763;-83
2022/09/18 00:45:38;;;;;;;;;;;;;;;11.54;75.02;98648.78;4435463;32;34047;-82
2022/09/18 00:48:09;;;;;;;;;;;;;;;11.91;73.08;98647.53;4426485;32;33062;-83
2022/09/18 00:50:40;;;;;;;;;;;;;;;11.96;72.82;98653.44;4429481;32;34464;-84
2022/09/18 00:53:08;;;;;;;;;;;;;;;11.82;73.02;98645.25;4430952;32;33837;-83
2022/09/18 00:55:37;;;;;;;;;;;;;;;11.67;73.15;98652.66;4432297;32;33926;-83
2022/09/18 00:58:07;;;;;;;;;;;;;;;11.35;73.54;98651.13;4437605;32;33217;-82
2022/09/18 01:00:40;;;;;;;;;;;;;;;11.45;73.32;98649.94;4432861;32;33962;-84
2022/09/18 01:03:18;;;;;;;;;;;;;;;11.46;72.50;98649.03;4432696;32;33963;-82
2022/09/18 01:05:51;;;;;;;;;;;;;;;11.35;72.72;98658.91;4433615;32;34764;-84
2022/09/18 01:08:23;;;;;;;;;;;;;;;11.28;73.25;98650.50;4417192;32;32238;-84
2022/09/18 01:10:58;;;;;;;;;;;;;;;11.50;72.21;98661.03;4422052;32;34048;-83
2022/09/18 01:13:28;;;;;;;;;;;;;;;11.61;70.97;98665.00;4424889;32;35349;-82
2022/09/18 01:15:59;;;;;;;;;;;;;;;11.64;70.98;98657.09;4433639;32;34470;-83
2022/09/18 01:18:29;;;;;;;;;;;;;;;11.75;70.81;98666.22;4434880;32;33159;-83
2022/09/18 01:21:12;;;;;;;;;;;;;;;11.72;70.39;98661.16;4437791;32;33522;-79
2022/09/18 01:23:47;;;;;;;;;;;;;;;11.64;70.09;98676.13;4437460;32;33714;-81
2022/09/18 01:26:20;;;;;;;;;;;;;;;11.52;69.56;98672.22;4434184;32;34486;-81
2022/09/18 01:28:51;;;;;;;;;;;;;;;11.28;70.18;98675.59;4434912;32;34419;-84
2022/09/18 01:31:28;;;;;;;;;;;;;;;11.22;70.71;98684.44;4432562;32;34533;-81
2022/09/18 01:33:58;;;;;;;;;;;;;;;11.27;69.39;98695.53;4436794;32;34002;-81
2022/09/18 01:36:33;;;;;;;;;;;;;;;11.31;70.08;98698.88;4438186;32;34552;-82
2022/09/18 01:39:05;;;;;;;;;;;;;;;11.36;69.38;98697.00;4433900;32;33145;-81
2022/09/18 01:41:37;;;;;;;;;;;;;;;11.50;69.44;98701.72;4431415;32;34521;-83
2022/09/18 01:44:15;;;;;;;;;;;;;;;11.73;67.81;98709.59;4432958;32;34040;-82
2022/09/18 01:46:44;;;;;;;;;;;;;;;11.54;68.01;98717.16;4436867;32;34461;-83
2022/09/18 01:49:13;;;;;;;;;;;;;;;11.47;68.41;98723.44;4432897;32;34220;-82
2022/09/18 01:51:43;;;;;;;;;;;;;;;11.45;68.46;98729.59;4432905;32;34159;-82
2022/09/18 01:54:14;;;;;;;;;;;;;;;11.37;68.50;98729.84;4431758;32;34727;-83
2022/09/18 01:56:48;;;;;;;;;;;;;;;11.38;68.28;98725.47;4434087;32;33750;-81
2022/09/18 01:59:39;;;;;;;;;;;;;;;11.12;68.33;98737.56;4436814;32;34189;-80
2022/09/18 02:02:10;;;;;;;;;;;;;;;11.39;67.42;98735.00;4434585;32;34336;-82
2022/09/18 02:04:47;;;;;;;;;;;;;;;11.19;68.25;98740.81;4432681;32;33731;-84
2022/09/18 02:07:22;;;;;;;;;;;;;;;11.28;67.76;98740.50;4437330;32;34436;-84
2022/09/18 02:09:50;;;;;;;;;;;;;;;11.25;68.00;98744.03;4432826;32;33358;-83
2022/09/18 02:12:19;;;;;;;;;;;;;;;11.32;66.83;98745.56;4436893;32;34486;-82
2022/09/18 02:14:51;;;;;;;;;;;;;;;11.08;67.41;98759.28;4432087;32;33275;-81
2022/09/18 02:17:22;;;;;;;;;;;;;;;11.28;67.24;98764.75;4434349;32;34897;-83
2022/09/18 02:19:54;;;;;;;;;;;;;;;11.16;67.11;98759.06;4432747;32;33942;-83
2022/09/18 02:22:29;;;;;;;;;;;;;;;11.28;67.10;98758.69;4432667;32;33823;-84
2022/09/18 02:24:58;;;;;;;;;;;;;;;11.35;66.32;98767.13;4437421;32;34027;-84
2022/09/18 02:27:28;;;;;;;;;;;;;;;11.07;67.14;98774.03;4432749;32;34423;-82
2022/09/18 02:29:58;;;;;;;;;;;;;;;11.27;66.60;98782.97;4432742;32;36681;-84
2022/09/18 02:32:30;;;;;;;;;;;;;;;11.12;66.42;98779.09;4430329;32;33639;-84
2022/09/18 02:34:58;;;;;;;;;;;;;;;11.26;66.36;98783.84;4435658;32;33880;-82
2022/09/18 02:37:30;;;;;;;;;;;;;;;11.06;66.68;98784.44;4437591;32;34113;-84
2022/09/18 02:40:24;;;;;;;;;;;;;;;10.99;66.91;98788.13;4432143;32;33186;-82
2022/09/18 02:42:55;;;;;;;;;;;;;;;11.20;66.54;98791.81;4431737;32;34665;-82
2022/09/18 02:45:27;;;;;;;;;;;;;;;11.06;66.39;98790.47;4436928;32;34926;-85
2022/09/18 02:48:02;;;;;;;;;;;;;;;11.04;66.58;98799.19;4436097;32;33849;-83
2022/09/18 02:50:33;;;;;;;;;;;;;;;10.80;67.10;98798.16;4436588;32;33635;-82
2022/09/18 02:53:07;;;;;;;;;;;;;;;10.91;66.37;98803.91;4429501;32;34546;-83
2022/09/18 02:55:43;;;;;;;;;;;;;;;10.70;67.27;98800.16;4417182;32;33301;-84
2022/09/18 02:58:13;;;;;;;;;;;;;;;10.68;67.71;98801.97;4432564;32;34388;-81
2022/09/18 03:00:43;;;;;;;;;;;;;;;10.92;66.15;98797.84;4436622;32;34083;-80
2022/09/18 03:03:13;;;;;;;;;;;;;;;10.87;66.39;98800.56;4433422;32;34776;-81
2022/09/18 03:05:43;;;;;;;;;;;;;;;10.94;66.37;98805.56;4431914;32;34245;-82
2022/09/18 03:08:11;;;;;;;;;;;;;;;10.95;65.73;98804.69;4432273;32;33724;-83
2022/09/18 03:10:40;;;;;;;;;;;;;;;10.97;66.07;98814.13;4432161;32;33426;-84
2022/09/18 03:13:12;;;;;;;;;;;;;;;10.80;66.37;98814.59;4436376;32;34665;-82
2022/09/18 03:15:45;;;;;;;;;;;;;;;10.92;66.00;98817.72;4432193;32;34308;-83
2022/09/18 03:18:15;;;;;;;;;;;;;;;11.00;65.67;98819.22;4431713;32;34825;-82
2022/09/18 03:20:44;;;;;;;;;;;;;;;10.94;66.06;98824.56;4431711;32;34225;-83
2022/09/18 03:23:15;;;;;;;;;;;;;;;10.95;65.66;98821.09;4434250;32;33601;-82
2022/09/18 03:25:48;;;;;;;;;;;;;;;11.05;65.09;98830.31;4434771;32;34305;-83
2022/09/18 03:28:18;;;;;;;;;;;;;;;10.95;65.35;98831.47;4432732;32;35180;-82
2022/09/18 03:30:48;;;;;;;;;;;;;;;11.03;65.11;98837.28;4431854;32;34244;-82
2022/09/18 03:33:18;;;;;;;;;;;;;;;10.87;65.95;98843.81;4429503;32;33413;-82
2022/09/18 03:35:52;;;;;;;;;;;;;;;11.01;65.96;98841.66;4434229;32;33516;-84
2022/09/18 03:38:20;;;;;;;;;;;;;;;11.19;64.89;98842.06;4433712;32;34767;-82
2022/09/18 03:40:53;;;;;;;;;;;;;;;11.50;63.31;98842.84;4430021;32;34126;-81
2022/09/18 03:43:21;;;;;;;;;;;;;;;11.30;64.18;98848.59;4431167;32;34551;-80
2022/09/18 03:45:50;;;;;;;;;;;;;;;11.36;63.86;98847.59;4435032;32;33884;-84
2022/09/18 03:48:23;;;;;;;;;;;;;;;11.22;64.48;98857.53;4436149;32;33751;-82
2022/09/18 03:50:52;;;;;;;;;;;;;;;11.65;62.91;98854.50;4430890;32;33197;-81
2022/09/18 03:53:21;;;;;;;;;;;;;;;11.37;64.06;98861.44;4430811;32;33892;-81
2022/09/18 03:55:51;;;;;;;;;;;;;;;11.27;63.98;98861.69;4432549;32;35706;-81
2022/09/18 03:58:21;;;;;;;;;;;;;;;11.32;64.38;98858.97;4428682;32;34952;-84
2022/09/18 04:00:50;;;;;;;;;;;;;;;11.46;63.93;98864.59;4380724;32;1624818;-81
2022/09/18 04:03:29;;;;;;;;;;;;;;;11.30;64.12;98865.94;4431190;32;33698;-81
2022/09/18 04:06:04;;;;;;;;;;;;;;;11.49;63.64;98868.84;4437229;32;33952;-82
2022/09/18 04:08:37;;;;;;;;;;;;;;;11.54;63.88;98874.75;4433165;32;34328;-80
2022/09/18 04:11:08;;;;;;;;;;;;;;;11.46;63.96;98877.59;4437830;32;33436;-82
2022/09/18 04:13:38;;;;;;;;;;;;;;;11.44;64.32;98878.53;4432542;32;33836;-81
2022/09/18 04:16:08;;;;;;;;;;;;;;;11.46;64.18;98875.00;4436820;32;34450;-80
2022/09/18 04:18:47;;;;;;;;;;;;;;;11.54;64.13;98880.78;4433516;32;34048;-79
2022/09/18 04:21:15;;;;;;;;;;;;;;;11.40;64.33;98882.94;4434119;32;33188;-82
2022/09/18 04:23:44;;;;;;;;;;;;;;;11.35;64.72;98879.63;4437610;32;36238;-82
2022/09/18 04:26:14;;;;;;;;;;;;;;;11.13;64.81;98883.75;4432954;32;34501;-82
2022/09/18 04:28:48;;;;;;;;;;;;;;;11.41;63.70;98884.66;4434656;32;33828;-81
2022/09/18 04:31:16;;;;;;;;;;;;;;;11.31;64.70;98880.66;4432956;32;33849;-82
2022/09/18 04:33:49;;;;;;;;;;;;;;;11.20;64.62;98885.28;4437985;32;33880;-84
2022/09/18 04:36:18;;;;;;;;;;;;;;;11.26;64.39;98882.50;4433510;32;34595;-83
2022/09/18 04:38:47;;;;;;;;;;;;;;;10.95;65.42;98885.12;4433021;32;34607;-81
2022/09/18 04:41:20;;;;;;;;;;;;;;;10.97;65.42;98889.38;4432964;32;33465;-82
2022/09/18 04:43:51;;;;;;;;;;;;;;;11.21;64.51;98894.75;4432884;32;35053;-80
2022/09/18 04:46:20;;;;;;;;;;;;;;;11.44;63.77;98892.34;4423506;32;33656;-83
2022/09/18 04:48:54;;;;;;;;;;;;;;;11.42;63.98;98895.91;4435034;32;34168;-82
2022/09/18 04:51:23;;;;;;;;;;;;;;;11.40;63.54;98898.53;4432677;32;33117;-81
2022/09/18 04:53:55;;;;;;;;;;;;;;;11.62;63.33;98906.56;4433406;32;33581;-82
2022/09/18 04:56:23;;;;;;;;;;;;;;;11.78;62.92;98912.13;4437457;32;34213;-81
2022/09/18 04:58:52;;;;;;;;;;;;;;;11.70;62.12;98919.31;4437293;32;33737;-82
2022/09/18 05:01:27;;;;;;;;;;;;;;;11.78;62.09;98917.31;4432467;32;32556;-83
2022/09/18 05:04:00;;;;;;;;;;;;;;;11.74;62.51;98913.13;4432218;32;34118;-83
2022/09/18 05:06:45;;;;;;;;;;;;;;;11.74;61.71;98916.59;4430358;32;34050;-82
2022/09/18 05:09:15;;;;;;;;;;;;;;;11.94;61.51;98921.19;4435165;32;34225;-84
2022/09/18 05:11:53;;;;;;;;;;;;;;;11.86;61.26;98917.97;4434516;32;33234;-84
2022/09/18 05:14:27;;;;;;;;;;;;;;;11.90;61.01;98921.34;4429530;32;33750;-82
2022/09/18 05:16:56;;;;;;;;;;;;;;;11.60;62.16;98923.94;4432121;32;33975;-81
2022/09/18 05:19:26;;;;;;;;;;;;;;;11.91;60.39;98920.41;4432786;32;34806;-80
2022/09/18 05:21:55;;;;;;;;;;;;;;;11.40;62.14;98923.66;4437897;32;33532;-80
2022/09/18 05:24:26;;;;;;;;;;;;;;;11.63;61.93;98936.00;4432909;32;33417;-83
2022/09/18 05:26:55;;;;;;;;;;;;;;;11.92;60.27;98927.34;4433141;32;34740;-81
2022/09/18 05:29:27;;;;;;;;;;;;;;;11.66;61.42;98930.69;4433928;32;34459;-84
2022/09/18 05:31:56;;;;;;;;;;;;;;;11.67;61.56;98930.66;4435298;32;34198;-82
2022/09/18 05:34:30;;;;;;;;;;;;;;;11.72;61.22;98920.13;4437496;32;34016;-82
2022/09/18 05:36:58;;;;;;;;;;;;;;;11.61;61.22;98922.19;4434635;32;34468;-84
2022/09/18 05:39:36;;;;;;;;;;;;;;;11.90;60.66;98929.97;4432332;32;34708;-81
2022/09/18 05:42:05;;;;;;;;;;;;;;;11.84;60.68;98927.56;4432538;32;33214;-83
2022/09/18 05:44:39;;;;;;;;;;;;;;;11.76;61.41;98939.91;4437263;32;33784;-82
2022/09/18 05:47:11;;;;;;;;;;;;;;;11.64;61.25;98933.31;4434075;32;34012;-82
2022/09/18 05:49:44;;;;;;;;;;;;;;;12.00;60.50;98933.13;4434148;32;35103;-83
2022/09/18 05:52:13;;;;;;;;;;;;;;;12.00;61.18;98940.94;4432360;32;33714;-81
2022/09/18 05:54:44;;;;;;;;;;;;;;;11.98;61.94;98934.09;4432522;32;33306;-82
2022/09/18 05:57:12;;;;;;;;;;;;;;;12.38;60.60;98924.13;4436719;32;33789;-80
2022/09/18 05:59:41;;;;;;;;;;;;;;;12.48;60.56;98936.81;4433459;32;34246;-82
2022/09/18 06:02:10;;;;;;;;;;;;;;;12.36;61.00;98938.91;4431923;32;33493;-82
2022/09/18 06:04:46;;;;;;;;;;;;;;;12.43;60.63;98934.37;4432298;32;34638;-82
2022/09/18 06:07:22;;;;;;;;;;;;;;;12.40;61.77;98936.25;4436315;32;34886;-83
2022/09/18 06:09:51;;;;;;;;;;;;;;;12.52;60.45;98938.44;4436858;32;34554;-82
2022/09/18 06:12:19;;;;;;;;;;;;;;;12.52;60.41;98941.87;4430322;32;33936;-85
2022/09/18 06:14:51;;;;;;;;;;;;;;;12.18;61.50;98936.94;4430825;32;33232;-84
2022/09/18 06:17:22;;;;;;;;;;;;;;;12.42;60.96;98942.22;4424877;32;34327;-82
2022/09/18 06:19:53;;;;;;;;;;;;;;;12.37;61.50;98944.97;4429918;32;34542;-82
2022/09/18 06:22:22;;;;;;;;;;;;;;;12.62;60.92;98947.63;4428067;32;33725;-83
2022/09/18 06:24:51;;;;;;;;;;;;;;;12.65;60.50;98949.28;4423202;32;34209;-82
2022/09/18 06:27:26;;;;;;;;;;;;;;;12.68;60.61;98960.41;4431406;32;33923;-82
2022/09/18 06:29:55;;;;;;;;;;;;;;;12.88;59.94;98957.16;4431185;32;34516;-82
2022/09/18 06:32:24;;;;;;;;;;;;;;;12.72;61.31;98954.22;4433800;32;32943;-83
2022/09/18 06:34:57;;;;;;;;;;;;;;;12.80;59.51;98952.19;4429283;32;33236;-85
2022/09/18 06:37:26;;;;;;;;;;;;;;;12.75;60.56;98961.91;4432972;32;34708;-82
2022/09/18 06:39:58;;;;;;;;;;;;;;;12.72;61.24;98956.81;4432328;32;33463;-83
2022/09/18 06:42:31;;;;;;;;;;;;;;;12.78;60.00;98953.16;4421721;32;33372;-84
2022/09/18 06:45:00;;;;;;;;;;;;;;;12.90;60.44;98957.09;4417240;32;33699;-82
2022/09/18 06:47:29;;;;;;;;;;;;;;;13.09;58.86;98950.34;4427146;32;33960;-83
2022/09/18 06:50:01;;;;;;;;;;;;;;;12.92;59.96;98957.91;4426924;32;33677;-83
2022/09/18 06:52:38;;;;;;;;;;;;;;;13.06;59.08;98947.84;4417920;32;33553;-82
2022/09/18 06:55:10;;;;;;;;;;;;;;;12.84;59.74;98954.72;4434823;32;34722;-83
2022/09/18 06:57:42;;;;;;;;;;;;;;;12.51;59.37;98953.16;4426321;32;33897;-83
2022/09/18 07:00:17;;;;;;;;;;;;;;;12.67;58.71;98943.13;4416773;32;35035;-84
2022/09/18 07:02:45;;;;;;;;;;;;;;;12.58;58.36;98966.84;4422856;32;33769;-83
2022/09/18 07:05:21;;;;;;;;;;;;;;;12.65;58.28;98951.88;4427560;32;32857;-83
2022/09/18 07:07:49;;;;;;;;;;;;;;;12.74;57.53;98949.81;4429379;32;33460;-86
2022/09/18 07:10:20;;;;;;;;;;;;;;;12.74;58.07;98968.03;4430979;32;33333;-85
2022/09/18 07:12:49;;;;;;;;;;;;;;;13.04;57.92;98960.06;4427699;32;33082;-86
2022/09/18 07:15:20;;;;;;;;;;;;;;;13.10;55.06;98959.03;4433237;32;33665;-83
2022/09/18 07:17:49;;;;;;;;;;;;;;;12.76;54.40;98971.44;4434881;32;34313;-82
2022/09/18 07:20:22;;;;;;;;;;;;;;;12.70;54.89;98955.19;4430854;32;33726;-84
2022/09/18 07:22:53;;;;;;;;;;;;;;;12.69;55.21;98969.94;4427286;32;33506;-86
2022/09/18 07:25:28;;;;;;;;;;;;;;;12.90;54.12;98989.22;4429208;32;33851;-83
2022/09/18 07:28:03;;;;;;;;;;;;;;;12.78;54.21;98967.03;4419750;32;34030;-82
2022/09/18 07:30:32;;;;;;;;;;;;;;;12.81;54.98;98987.75;4432623;32;34066;-85
2022/09/18 07:33:05;;;;;;;;;;;;;;;12.80;53.76;98972.19;4418785;32;34241;-88
2022/09/18 07:35:41;;;;;;;;;;;;;;;12.86;52.94;98981.56;4425370;32;34869;-89
2022/09/18 07:38:14;;;;;;;;;;;;;;;13.10;52.50;98988.50;4407199;32;33648;-87
2022/09/18 07:40:44;;;;;;;;;;;;;;;13.02;52.56;98986.19;4424730;32;35126;-83
2022/09/18 07:43:19;;;;;;;;;;;;;;;13.13;52.11;98961.50;4422895;32;33219;-84
2022/09/18 07:45:50;;;;;;;;;;;;;;;13.23;51.83;98978.50;4421350;32;33470;-86
2022/09/18 07:48:20;;;;;;;;;;;;;;;13.09;52.57;99004.19;4425591;32;34885;-84
2022/09/18 07:50:56;;;;;;;;;;;;;;;12.95;51.97;99007.25;4426028;32;34778;-84
2022/09/18 07:53:24;;;;;;;;;;;;;;;12.97;51.73;99008.03;4432751;32;33121;-84
2022/09/18 07:55:56;;;;;;;;;;;;;;;13.13;51.81;99005.78;4437906;32;33474;-83
2022/09/18 07:58:25;;;;;;;;;;;;;;;13.22;51.86;98989.84;4436142;32;33955;-83
2022/09/18 08:00:59;;;;;;;;;;;;;;;13.39;51.54;98999.69;4430929;32;33865;-85
2022/09/18 08:03:28;;;;;;;;;;;;;;;13.47;51.88;99012.44;4430482;32;33137;-84
2022/09/18 08:05:59;;;;;;;;;;;;;;;13.69;51.37;99004.69;4436585;32;34085;-85
2022/09/18 08:08:29;;;;;;;;;;;;;;;13.48;51.81;99001.94;4432233;32;34788;-83
2022/09/18 08:10:57;;;;;;;;;;;;;;;13.35;52.33;99001.56;4433076;32;33997;-86
2022/09/18 08:13:30;;;;;;;;;;;;;;;13.43;52.29;99007.34;4431447;32;33206;-83
2022/09/18 08:16:03;;;;;;;;;;;;;;;13.49;52.35;99006.28;4431716;32;34341;-85
2022/09/18 08:18:33;;;;;;;;;;;;;;;13.58;52.52;99011.16;4438047;32;33759;-84
2022/09/18 08:21:10;;;;;;;;;;;;;;;13.92;52.42;99017.72;4443796;32;34907;-85
2022/09/18 08:23:39;;;;;;;;;;;;;;;14.21;51.48;99036.66;4434174;32;33087;-85
2022/09/18 08:26:14;;;;;;;;;;;;;;;13.72;51.23;99020.22;4438475;32;34526;-82
2022/09/18 08:28:54;;;;;;;;;;;;;;;13.97;51.12;99014.97;4433209;32;34048;-83
2022/09/18 08:31:31;;;;;;;;;;;;;;;13.86;51.01;99029.22;4438560;32;34608;-84
2022/09/18 08:33:59;;;;;;;;;;;;;;;13.67;51.13;99012.56;4418883;32;33383;-83
2022/09/18 08:36:29;;;;;;;;;;;;;;;13.75;50.86;99009.66;4433919;32;33794;-84
2022/09/18 08:38:58;;;;;;;;;;;;;;;13.68;51.49;99011.66;4431259;32;33745;-85
2022/09/18 08:41:35;;;;;;;;;;;;;;;13.64;51.17;99029.16;4438553;32;34008;-86
2022/09/18 08:44:08;;;;;;;;;;;;;;;13.74;50.34;99026.22;4431829;32;33059;-84
2022/09/18 08:46:40;;;;;;;;;;;;;;;13.98;49.88;99042.72;4423638;32;33988;-83
2022/09/18 08:49:15;;;;;;;;;;;;;;;13.96;49.64;99024.50;4425261;32;35584;-84
2022/09/18 08:51:47;;;;;;;;;;;;;;;13.93;49.41;99036.81;4425568;32;34551;-85
2022/09/18 08:54:19;;;;;;;;;;;;;;;13.61;49.88;99016.25;4435077;32;33010;-83
2022/09/18 08:56:48;;;;;;;;;;;;;;;13.61;50.65;99028.44;4426707;32;33663;-82
2022/09/18 08:59:18;;;;;;;;;;;;;;;13.92;50.63;99020.34;4426991;32;34928;-84
2022/09/18 09:01:50;;;;;;;;;;;;;;;14.11;50.49;99041.37;4416010;32;34267;-84
2022/09/18 09:04:20;;;;;;;;;;;;;;;14.04;49.18;99038.13;4417571;32;33144;-85
2022/09/18 09:06:56;;;;;;;;;;;;;;;13.77;49.66;99033.94;4420382;32;33819;-86
2022/09/18 09:09:42;;;;;;;;;;;;;;;13.89;49.71;99036.06;4426182;32;33770;-87
2022/09/18 09:12:13;;;;;;;;;;;;;;;13.84;50.43;99033.66;4426351;32;33961;-83
2022/09/18 09:14:44;;;;;;;;;;;;;;;14.03;49.49;99032.97;4428140;32;33423;-84
2022/09/18 09:17:33;;;;;;;;;;;;;;;14.18;49.81;99041.97;4430960;32;33939;-83
2022/09/18 09:20:05;;;;;;;;;;;;;;;14.09;50.03;99054.44;4429005;32;34839;-86
2022/09/18 09:22:38;;;;;;;;;;;;;;;14.13;49.64;99042.13;4426240;32;34308;-83
2022/09/18 09:25:11;;;;;;;;;;;;;;;14.13;48.94;99047.34;4423743;32;33293;-83
2022/09/18 09:27:42;;;;;;;;;;;;;;;14.09;49.45;99032.75;4428114;32;34400;-83
2022/09/18 09:30:12;;;;;;;;;;;;;;;14.28;50.74;99033.72;4429896;32;35710;-84
2022/09/18 09:35:37;;;;;;;;;;;;;;;14.34;49.13;99043.06;4426499;32;33956;-84
2022/09/18 09:38:13;;;;;;;;;;;;;;;14.37;49.71;99053.38;4425187;32;34554;-83
2022/09/18 09:40:51;;;;;;;;;;;;;;;14.17;49.03;99033.28;4424886;32;36171;-83
2022/09/18 09:43:23;;;;;;;;;;;;;;;13.86;50.68;99041.41;4426105;32;34386;-84
2022/09/18 09:45:52;;;;;;;;;;;;;;;14.04;50.01;99045.12;4431612;32;33706;-84
2022/09/18 09:48:22;;;;;;;;;;;;;;;14.17;50.97;99055.91;4430837;32;33736;-84
2022/09/18 09:50:53;;;;;;;;;;;;;;;14.25;49.73;99048.63;4425387;32;33865;-83
2022/09/18 09:53:24;;;;;;;;;;;;;;;13.95;50.43;99054.13;4426704;32;33968;-85
2022/09/18 09:55:54;;;;;;;;;;;;;;;13.79;51.00;99055.59;4428131;32;32841;-85
2022/09/18 09:58:28;;;;;;;;;;;;;;;13.92;51.15;99054.25;4431293;32;34036;-84
2022/09/18 10:00:58;;;;;;;;;;;;;;;13.82;51.44;99061.56;4423842;32;34030;-86
2022/09/18 10:03:34;;;;;;;;;;;;;;;13.95;51.49;99051.50;4422711;32;34210;-84
2022/09/18 10:06:09;;;;;;;;;;;;;;;14.23;51.13;99066.97;4434005;32;34073;-84
2022/09/18 10:08:41;;;;;;;;;;;;;;;13.82;50.54;99058.94;4429538;32;32331;-83
2022/09/18 10:11:11;;;;;;;;;;;;;;;13.84;50.86;99066.69;4435996;32;35218;-84
2022/09/18 10:13:41;;;;;;;;;;;;;;;13.98;51.29;99072.25;4437588;32;33753;-83
2022/09/18 10:16:10;;;;;;;;;;;;;;;14.01;50.03;99093.03;4424462;32;32904;-83
2022/09/18 10:18:39;;;;;;;;;;;;;;;13.71;49.51;99079.31;4418115;32;33245;-83
2022/09/18 10:21:14;;;;;;;;;;;;;;;13.77;49.17;99075.62;4434966;32;34909;-83
2022/09/18 10:23:45;;;;;;;;;;;;;;;13.75;48.74;99072.22;4424580;32;34052;-84
2022/09/18 10:26:15;;;;;;;;;;;;;;;13.75;48.66;99082.66;4424514;32;34389;-83
2022/09/18 10:28:43;;;;;;;;;;;;;;;13.85;48.13;99091.88;4430105;32;33953;-83
2022/09/18 10:31:12;;;;;;;;;;;;;;;13.91;47.98;99060.34;4433559;32;33701;-84
2022/09/18 10:33:45;;;;;;;;;;;;;;;13.88;48.41;99068.28;4436442;32;34574;-84
2022/09/18 10:36:18;;;;;;;;;;;;;;;13.82;48.41;99076.31;4433063;32;33377;-85
2022/09/18 10:38:48;;;;;;;;;;;;;;;13.98;48.55;99074.84;4433915;32;34172;-83
2022/09/18 10:41:23;;;;;;;;;;;;;;;14.44;48.36;99078.34;4432670;32;34311;-83
2022/09/18 10:43:53;;;;;;;;;;;;;;;14.54;47.80;99078.00;4432546;32;35061;-83
2022/09/18 10:46:30;;;;;;;;;;;;;;;14.32;48.21;99083.19;4436463;32;33636;-83
2022/09/18 10:49:01;;;;;;;;;;;;;;;14.54;48.21;99081.47;4435873;32;34890;-83
2022/09/18 10:51:29;;;;;;;;;;;;;;;14.80;48.01;99067.38;4431982;32;33084;-83
2022/09/18 10:54:04;;;;;;;;;;;;;;;14.98;47.05;99064.94;4432273;32;34569;-82
2022/09/18 10:56:34;;;;;;;;;;;;;;;14.67;46.91;99071.41;4436634;32;33611;-82
2022/09/18 10:59:13;;;;;;;;;;;;;;;14.68;47.13;99079.16;4427407;32;33753;-83
2022/09/18 11:01:47;;;;;;;;;;;;;;;14.53;47.76;99069.31;4411928;32;34023;-84
2022/09/18 11:04:16;;;;;;;;;;;;;;;14.80;47.88;99074.38;4413711;32;34906;-84
2022/09/18 11:06:45;;;;;;;;;;;;;;;15.17;47.43;99078.09;4417332;32;34028;-83
2022/09/18 11:09:19;;;;;;;;;;;;;;;15.32;47.66;99074.84;4421660;32;34599;-83
2022/09/18 11:11:52;;;;;;;;;;;;;;;15.31;46.38;99084.41;4417550;32;34570;-83
2022/09/18 11:14:22;;;;;;;;;;;;;;;15.11;47.73;99084.41;4415988;32;34053;-83
2022/09/18 11:16:51;;;;;;;;;;;;;;;15.36;46.52;99073.78;4417211;32;33052;-85
2022/09/18 11:19:24;;;;;;;;;;;;;;;15.42;46.69;99083.97;4416660;32;34484;-86
2022/09/18 11:21:55;;;;;;;;;;;;;;;15.33;46.14;99074.75;4421322;32;35114;-83
2022/09/18 11:24:26;;;;;;;;;;;;;;;15.31;46.79;99073.97;4416899;32;34976;-84
2022/09/18 11:26:56;;;;;;;;;;;;;;;15.46;47.23;99079.47;4416393;32;33356;-83
2022/09/18 11:29:27;;;;;;;;;;;;;;;15.49;46.94;99080.19;4408235;32;34877;-86
2022/09/18 11:31:57;;;;;;;;;;;;;;;15.78;45.19;99078.09;4421214;32;33876;-83
2022/09/18 11:34:27;;;;;;;;;;;;;;;15.65;45.24;99069.91;4416807;32;33753;-82
2022/09/18 11:36:58;;;;;;;;;;;;;;;15.71;45.32;99082.75;4418461;32;32999;-84
2022/09/18 11:39:41;;;;;;;;;;;;;;;15.92;44.20;99067.00;4419531;32;34576;-86
2022/09/18 11:42:13;;;;;;;;;;;;;;;15.91;43.87;99060.94;4415927;32;33043;-85
2022/09/18 11:44:49;;;;;;;;;;;;;;;15.64;44.03;99065.59;4419884;32;35049;-83
2022/09/18 11:47:36;;;;;;;;;;;;;;;15.85;43.82;99066.47;4425046;32;34683;-84
2022/09/18 11:50:08;;;;;;;;;;;;;;;16.11;43.95;99073.09;4421317;32;34705;-83
2022/09/18 11:52:43;;;;;;;;;;;;;;;15.95;42.88;99059.88;4424243;32;34755;-86
2022/09/18 11:55:29;;;;;;;;;;;;;;;15.87;43.45;99064.59;4425622;32;34167;-86
2022/09/18 11:57:58;;;;;;;;;;;;;;;16.26;42.61;99058.50;4431800;32;33942;-83
2022/09/18 12:00:28;;;;;;;;;;;;;;;16.55;42.63;99051.88;4434964;32;34876;-83
2022/09/18 12:02:59;;;;;;;;;;;;;;;16.70;41.58;99054.69;4431393;32;33431;-83
2022/09/18 12:05:34;;;;;;;;;;;;;;;16.75;42.06;99061.38;4431411;32;34027;-83
2022/09/18 12:08:05;;;;;;;;;;;;;;;16.79;40.58;99052.50;4428278;32;33270;-84
2022/09/18 12:10:57;;;;;;;;;;;;;;;16.41;41.28;99036.81;4415559;32;33631;-84
2022/09/18 12:13:41;;;;;;;;;;;;;;;16.37;41.51;99063.22;4428722;32;33461;-84
2022/09/18 12:16:12;;;;;;;;;;;;;;;16.71;41.43;99053.75;4400635;32;33708;-84
2022/09/18 12:18:58;;;;;;;;;;;;;;;16.91;39.90;99044.94;4423372;32;34030;-86
2022/09/18 12:21:36;;;;;;;;;;;;;;;17.12;40.50;99040.41;4417412;32;33847;-85
2022/09/18 12:24:19;;;;;;;;;;;;;;;17.42;39.76;99051.97;4418614;32;34164;-83
2022/09/18 12:27:04;;;;;;;;;;;;;;;17.31;39.06;99041.16;4427694;32;34058;-86
2022/09/18 12:29:44;;;;;;;;;;;;;;;17.34;38.83;99034.91;4427357;32;33976;-84
2022/09/18 12:32:24;;;;;;;;;;;;;;;17.14;38.00;99046.41;4423412;32;33585;-83
2022/09/18 12:34:55;;;;;;;;;;;;;;;16.97;39.57;99048.09;4422241;32;34114;-86
2022/09/18 12:37:33;;;;;;;;;;;;;;;16.93;37.38;99046.56;4425046;32;33943;-82
2022/09/18 12:40:26;;;;;;;;;;;;;;;16.96;36.53;99046.44;4422237;32;33762;-83
2022/09/18 12:43:00;;;;;;;;;;;;;;;16.77;36.35;99048.22;4424175;32;33162;-86
2022/09/18 12:45:49;;;;;;;;;;;;;;;16.99;35.35;99035.78;4428972;32;33514;-85
2022/09/18 12:48:31;;;;;;;;;;;;;;;17.46;36.27;99042.16;4417366;32;33787;-88
2022/09/18 12:51:09;;;;;;;;;;;;;;;17.71;35.88;99036.47;4424090;32;33645;-84
2022/09/18 12:53:41;;;;;;;;;;;;;;;17.80;36.31;99041.25;4420849;32;31092;-85
2022/09/18 12:56:25;;;;;;;;;;;;;;;18.22;35.19;99045.12;4426480;32;33575;-85
2022/09/18 12:58:59;;;;;;;;;;;;;;;18.44;36.85;99033.44;4426014;32;34253;-84
2022/09/18 13:01:38;;;;;;;;;;;;;;;18.59;34.87;99039.59;4429016;32;33861;-82
2022/09/18 13:04:45;;;;;;;;;;;;;;;18.59;32.29;99027.31;4426176;32;34927;-85
2022/09/18 13:07:14;;;;;;;;;;;;;;;18.50;33.89;99023.41;4425206;32;34506;-86
2022/09/18 13:09:51;;;;;;;;;;;;;;;18.65;33.28;99033.97;4428777;32;34074;-83
2022/09/18 13:12:26;;;;;;;;;;;;;;;18.52;33.28;99034.69;4430229;32;33265;-83
2022/09/18 13:15:03;;;;;;;;;;;;;;;18.46;34.21;99040.28;4430672;32;33955;-86
2022/09/18 13:17:36;;;;;;;;;;;;;;;17.97;35.19;99042.97;4429110;32;33958;-87